Time;durP1;ratioP1;P1;durP2;ratioP2;P2;SDS_P1;SDS_P2;PMS_P1;PMS_P2;Temp;Humidity;BMP_temperature;BMP_pressure;BME280_temperature;BME280_humidity;BME280_pressure;Samples;Min_cycle;Max_cycle;Signal;HPM_P1;HPM_P2
2023/08/08 00:01:12;;;;;;;4.78;1.52;;;13.10;99.90;;;;;;5005281;28;20172;-96
2023/08/08 00:03:38;;;;;;;4.60;1.70;;;13.10;99.90;;;;;;5005792;28;20179;-96
2023/08/08 00:06:04;;;;;;;5.93;1.92;;;13.10;99.90;;;;;;5005989;28;20218;-95
2023/08/08 00:08:31;;;;;;;6.32;1.40;;;13.10;99.90;;;;;;5005518;28;20642;-96
2023/08/08 00:10:57;;;;;;;5.57;1.60;;;13.10;99.90;;;;;;4997823;28;20190;-95
2023/08/08 00:13:23;;;;;;;5.82;1.70;;;13.00;99.90;;;;;;5006388;28;20175;-95
2023/08/08 00:15:51;;;;;;;3.47;1.63;;;13.00;99.90;;;;;;5007160;28;20203;-96
2023/08/08 00:18:17;;;;;;;3.13;1.80;;;13.00;99.90;;;;;;5005699;28;20171;-96
2023/08/08 00:20:42;;;;;;;6.32;1.70;;;13.00;99.90;;;;;;5005530;28;20266;-96
2023/08/08 00:23:08;;;;;;;3.55;1.58;;;13.00;99.90;;;;;;5005713;28;20587;-94
2023/08/08 00:25:35;;;;;;;4.70;1.70;;;13.00;99.90;;;;;;5005381;28;20565;-96
2023/08/08 00:28:01;;;;;;;6.07;1.65;;;12.90;99.90;;;;;;5005504;28;20171;-95
2023/08/08 00:30:27;;;;;;;4.68;1.40;;;12.90;99.90;;;;;;5005482;28;20182;-95
2023/08/08 00:32:54;;;;;;;2.97;1.50;;;12.90;99.90;;;;;;5005367;28;20218;-95
2023/08/08 00:35:20;;;;;;;3.10;1.60;;;12.90;99.90;;;;;;5005873;28;20241;-95
2023/08/08 00:37:45;;;;;;;8.07;2.10;;;12.90;99.90;;;;;;5003696;28;20628;-96
2023/08/08 00:40:11;;;;;;;9.07;1.75;;;12.80;99.90;;;;;;5006077;28;20214;-96
2023/08/08 00:42:37;;;;;;;2.53;1.50;;;12.80;99.90;;;;;;5005356;28;20222;-94
2023/08/08 00:45:03;;;;;;;3.97;1.63;;;12.90;99.90;;;;;;5004901;28;20329;-95
2023/08/08 00:47:34;;;;;;;4.93;1.65;;;12.80;99.90;;;;;;5005547;28;20270;-96
2023/08/08 00:50:03;;;;;;;3.10;1.42;;;12.80;99.90;;;;;;5005491;28;20182;-96
2023/08/08 00:52:31;;;;;;;6.32;1.70;;;12.80;99.90;;;;;;5005240;28;20179;-96
2023/08/08 00:54:57;;;;;;;6.00;2.25;;;12.80;99.90;;;;;;5006329;28;20256;-95
2023/08/08 00:57:23;;;;;;;3.65;1.52;;;12.80;99.90;;;;;;5005149;28;20183;-96
2023/08/08 00:59:49;;;;;;;4.18;1.65;;;12.80;99.90;;;;;;5006889;28;20191;-96
2023/08/08 01:02:15;;;;;;;4.30;1.80;;;12.80;99.90;;;;;;5008199;28;20191;-95
2023/08/08 01:04:41;;;;;;;4.10;1.67;;;12.80;99.90;;;;;;5004602;28;20179;-95
2023/08/08 01:07:33;;;;;;;5.43;1.60;;;12.70;99.90;;;;;;5004186;28;20233;-96
2023/08/08 01:10:26;;;;;;;3.78;1.77;;;12.80;99.90;;;;;;5004980;28;20183;-94
2023/08/08 01:12:59;;;;;;;4.35;1.90;;;12.80;99.90;;;;;;5004979;28;20171;-96
2023/08/08 01:15:25;;;;;;;5.05;1.83;;;12.80;99.90;;;;;;5005268;28;20285;-96
2023/08/08 01:17:53;;;;;;;8.35;2.10;;;12.80;99.90;;;;;;5005060;28;20225;-95
2023/08/08 01:20:19;;;;;;;4.75;1.75;;;12.80;99.90;;;;;;5005206;28;20186;-96
2023/08/08 01:23:19;;;;;;;5.32;1.88;;;12.80;99.90;;;;;;5005234;28;20226;-95
2023/08/08 01:25:46;;;;;;;7.28;2.38;;;12.70;99.90;;;;;;5004941;28;20329;-95
2023/08/08 01:28:14;;;;;;;4.47;2.08;;;12.70;99.90;;;;;;5004161;28;20180;-95
2023/08/08 01:30:40;;;;;;;5.85;1.98;;;12.70;99.90;;;;;;5003923;28;20668;-95
2023/08/08 01:33:06;;;;;;;4.78;1.88;;;12.70;99.90;;;;;;5005210;28;20179;-95
2023/08/08 01:35:39;;;;;;;4.82;1.90;;;12.70;99.90;;;;;;5003951;28;20203;-95
2023/08/08 01:38:20;;;;;;;3.75;2.28;;;12.60;99.90;;;;;;5004215;28;20230;-95
2023/08/08 01:40:46;;;;;;;5.30;1.55;;;12.70;99.90;;;;;;5004581;28;20581;-94
2023/08/08 01:43:14;;;;;;;4.07;1.95;;;12.60;99.90;;;;;;5021279;28;20172;-96
2023/08/08 01:45:41;;;;;;;4.20;2.15;;;12.60;99.90;;;;;;5019892;28;20207;-96
2023/08/08 01:48:12;;;;;;;3.58;2.10;;;12.60;99.90;;;;;;5021355;28;20199;-96
2023/08/08 01:50:38;;;;;;;6.65;2.35;;;12.60;99.90;;;;;;5020579;28;20176;-96
2023/08/08 01:53:05;;;;;;;5.82;2.72;;;12.70;99.90;;;;;;5020560;28;20278;-96
2023/08/08 01:55:31;;;;;;;7.05;2.17;;;12.60;99.90;;;;;;5020483;28;20226;-96
2023/08/08 01:57:57;;;;;;;7.03;2.33;;;12.60;99.90;;;;;;5020750;28;20182;-96
2023/08/08 02:00:23;;;;;;;3.13;1.95;;;12.60;99.90;;;;;;5020219;28;20195;-94
2023/08/08 02:02:49;;;;;;;5.18;1.92;;;12.70;99.90;;;;;;5019439;28;20203;-93
2023/08/08 02:05:14;;;;;;;4.97;2.47;;;12.60;99.90;;;;;;5019407;28;20270;-95
2023/08/08 02:07:40;;;;;;;5.97;2.28;;;12.70;99.90;;;;;;5019810;28;20702;-96
2023/08/08 02:10:06;;;;;;;4.43;2.03;;;12.70;99.90;;;;;;5019884;28;20187;-96
2023/08/08 02:12:32;;;;;;;5.47;2.25;;;12.70;99.90;;;;;;5020089;28;20175;-95
2023/08/08 02:14:59;;;;;;;4.50;1.90;;;12.60;99.90;;;;;;5019482;28;20218;-95
2023/08/08 02:17:25;;;;;;;5.18;2.20;;;12.60;99.90;;;;;;5019856;28;20234;-95
2023/08/08 02:19:51;;;;;;;6.72;2.15;;;12.60;99.90;;;;;;5019892;28;20666;-96
2023/08/08 02:22:18;;;;;;;4.10;1.83;;;12.60;99.90;;;;;;5019646;28;20524;-95
2023/08/08 02:24:44;;;;;;;4.72;2.03;;;12.60;99.90;;;;;;5020820;28;20266;-95
2023/08/08 02:27:12;;;;;;;4.82;1.90;;;12.60;99.90;;;;;;5019469;28;20237;-94
2023/08/08 02:29:38;;;;;;;4.05;1.95;;;12.60;99.90;;;;;;5020160;28;20174;-95
2023/08/08 02:32:04;;;;;;;4.53;1.65;;;12.60;99.90;;;;;;5019769;28;20163;-95
2023/08/08 02:34:30;;;;;;;7.40;2.20;;;12.60;99.90;;;;;;5019710;28;20239;-95
2023/08/08 02:36:56;;;;;;;3.72;2.00;;;12.60;99.90;;;;;;5019541;28;20238;-96
2023/08/08 02:39:21;;;;;;;3.47;2.10;;;12.60;99.90;;;;;;5019875;28;20239;-96
2023/08/08 02:41:47;;;;;;;4.03;1.90;;;12.60;99.90;;;;;;5020063;28;20659;-95
2023/08/08 02:44:13;;;;;;;5.15;2.22;;;12.60;99.90;;;;;;5018879;28;20179;-95
2023/08/08 02:46:39;;;;;;;5.13;2.10;;;12.60;99.90;;;;;;5019999;28;20214;-95
2023/08/08 02:49:05;;;;;;;3.45;2.03;;;12.60;99.90;;;;;;5019169;28;20266;-95
2023/08/08 02:51:31;;;;;;;6.30;2.13;;;12.60;99.90;;;;;;5019189;28;20183;-95
2023/08/08 02:53:58;;;;;;;5.88;2.05;;;12.60;99.90;;;;;;5019256;28;20218;-96
2023/08/08 02:56:24;;;;;;;4.07;2.00;;;12.60;99.90;;;;;;5019657;28;20203;-94
2023/08/08 02:58:49;;;;;;;3.55;2.10;;;12.60;99.90;;;;;;5019154;28;20593;-94
2023/08/08 03:01:15;;;;;;;3.92;2.05;;;12.60;99.90;;;;;;5019738;28;20211;-95
2023/08/08 03:03:42;;;;;;;4.22;1.90;;;12.60;99.90;;;;;;5019233;28;20187;-95
2023/08/08 03:06:08;;;;;;;4.10;2.00;;;12.60;99.90;;;;;;5019272;28;20242;-96
2023/08/08 03:08:34;;;;;;;3.70;2.03;;;12.60;99.90;;;;;;5019470;28;20182;-95
2023/08/08 03:11:00;;;;;;;4.20;1.90;;;12.60;99.90;;;;;;5018736;28;20179;-94
2023/08/08 03:13:26;;;;;;;5.03;2.28;;;12.60;99.90;;;;;;5019820;28;20263;-95
2023/08/08 03:15:52;;;;;;;6.53;2.40;;;12.60;99.90;;;;;;5018742;28;20238;-94
2023/08/08 03:18:19;;;;;;;5.10;2.00;;;12.60;99.90;;;;;;5019044;28;20175;-95
2023/08/08 03:20:45;;;;;;;5.65;2.40;;;12.70;99.90;;;;;;5018711;28;20214;-95
2023/08/08 03:23:11;;;;;;;3.83;2.33;;;12.70;99.90;;;;;;5019578;28;20179;-95
2023/08/08 03:25:36;;;;;;;3.47;2.50;;;12.70;99.90;;;;;;5019069;28;20567;-95
2023/08/08 03:28:02;;;;;;;2.85;2.30;;;12.80;99.90;;;;;;5018898;28;20623;-95
2023/08/08 03:30:28;;;;;;;5.22;2.40;;;12.70;99.90;;;;;;5022415;28;20175;-94
2023/08/08 03:32:54;;;;;;;4.97;2.60;;;12.70;99.90;;;;;;5022752;28;20194;-96
2023/08/08 03:35:20;;;;;;;6.25;2.20;;;12.70;99.90;;;;;;5023251;28;20202;-95
2023/08/08 03:37:45;;;;;;;7.82;3.00;;;12.80;99.90;;;;;;5023024;28;20234;-95
2023/08/08 03:40:13;;;;;;;5.50;2.42;;;12.80;99.90;;;;;;5022864;28;20633;-96
2023/08/08 03:42:39;;;;;;;3.05;2.30;;;12.80;99.90;;;;;;5022141;28;20202;-96
2023/08/08 03:45:07;;;;;;;8.13;2.80;;;12.80;99.90;;;;;;5021886;28;20199;-95
2023/08/08 03:47:32;;;;;;;7.30;2.63;;;12.80;99.90;;;;;;5022452;28;20650;-96
2023/08/08 03:49:58;;;;;;;5.40;2.90;;;12.80;99.90;;;;;;5021979;28;20223;-95
2023/08/08 03:52:24;;;;;;;6.32;2.80;;;12.80;99.90;;;;;;5021931;28;20233;-95
2023/08/08 03:54:51;;;;;;;4.57;2.40;;;12.80;99.90;;;;;;5022318;28;20168;-95
2023/08/08 03:57:17;;;;;;;4.20;2.83;;;12.90;99.90;;;;;;5022628;28;20171;-96
2023/08/08 03:59:43;;;;;;;6.53;2.80;;;13.00;99.90;;;;;;5022437;28;20179;-94
2023/08/08 04:02:09;;;;;;;6.95;2.88;;;13.00;99.90;;;;;;5022566;28;20176;-93
2023/08/08 04:04:35;;;;;;;3.78;2.47;;;13.00;99.90;;;;;;5022536;28;20172;-96
2023/08/08 04:07:00;;;;;;;5.95;2.78;;;13.10;99.90;;;;;;5022084;28;20206;-94
2023/08/08 04:09:27;;;;;;;7.88;2.92;;;13.10;99.90;;;;;;5022371;28;20178;-94
2023/08/08 04:11:53;;;;;;;6.25;2.70;;;13.10;99.90;;;;;;5021712;28;20761;-94
2023/08/08 04:14:20;;;;;;;4.45;2.67;;;13.20;99.90;;;;;;5022410;28;20179;-96
2023/08/08 04:16:46;;;;;;;5.38;2.90;;;13.20;99.90;;;;;;5022402;28;20199;-95
2023/08/08 04:19:12;;;;;;;6.28;3.15;;;13.20;99.90;;;;;;5022184;28;20515;-95
2023/08/08 04:21:37;;;;;;;6.80;3.20;;;13.20;99.90;;;;;;5021959;28;20260;-96
2023/08/08 04:24:07;;;;;;;4.78;2.70;;;13.30;99.90;;;;;;5021843;28;20176;-94
2023/08/08 04:26:33;;;;;;;4.78;2.38;;;13.30;99.90;;;;;;5021621;28;20211;-94
2023/08/08 04:29:02;;;;;;;5.53;2.58;;;13.30;99.90;;;;;;5022555;28;20186;-96
2023/08/08 04:31:28;;;;;;;6.63;3.08;;;13.30;99.90;;;;;;5021783;28;20201;-95
2023/08/08 04:33:59;;;;;;;10.05;3.00;;;13.30;99.90;;;;;;5021694;28;20171;-95
2023/08/08 04:36:26;;;;;;;8.88;2.70;;;13.30;99.90;;;;;;5021907;28;20202;-95
2023/08/08 04:38:52;;;;;;;7.88;2.88;;;13.40;99.90;;;;;;5021436;28;20230;-95
2023/08/08 04:41:18;;;;;;;6.60;3.28;;;13.40;99.90;;;;;;5021250;28;20492;-95
2023/08/08 04:43:44;;;;;;;5.93;2.63;;;13.40;99.90;;;;;;5021539;28;20615;-96
2023/08/08 04:46:10;;;;;;;6.68;2.72;;;13.50;99.90;;;;;;5021905;28;20243;-96
2023/08/08 04:48:39;;;;;;;3.72;2.40;;;13.50;99.90;;;;;;5021575;28;20210;-96
2023/08/08 04:51:05;;;;;;;6.50;2.72;;;13.50;99.90;;;;;;5021454;28;20179;-96
2023/08/08 04:53:31;;;;;;;7.15;3.63;;;13.50;99.90;;;;;;5021853;28;20247;-96
2023/08/08 04:55:57;;;;;;;5.43;2.65;;;13.50;99.90;;;;;;5021983;28;20222;-95
2023/08/08 04:58:24;;;;;;;5.30;2.78;;;13.60;99.90;;;;;;5021648;28;20179;-96
2023/08/08 05:00:52;;;;;;;7.20;2.88;;;13.60;99.90;;;;;;5022056;28;20184;-95
2023/08/08 05:03:18;;;;;;;4.68;2.75;;;13.60;99.90;;;;;;5022080;28;20175;-95
2023/08/08 05:05:44;;;;;;;6.60;2.70;;;13.60;99.90;;;;;;5022462;28;20544;-95
2023/08/08 05:08:11;;;;;;;3.90;2.15;;;13.60;99.90;;;;;;5020862;28;20198;-95
2023/08/08 05:10:37;;;;;;;4.38;2.38;;;13.60;99.90;;;;;;5020888;28;20176;-94
2023/08/08 05:13:03;;;;;;;5.88;2.40;;;13.60;99.90;;;;;;5020976;28;20263;-95
2023/08/08 05:15:29;;;;;;;4.15;2.25;;;13.70;99.90;;;;;;5021245;28;20199;-95
2023/08/08 05:17:55;;;;;;;5.55;2.50;;;13.60;99.90;;;;;;5021490;28;20258;-96
2023/08/08 05:20:22;;;;;;;4.72;2.33;;;13.70;99.90;;;;;;5021212;28;20179;-94
2023/08/08 05:22:48;;;;;;;4.45;2.20;;;13.70;99.90;;;;;;5020959;28;20183;-95
2023/08/08 05:25:14;;;;;;;7.13;2.97;;;13.70;99.90;;;;;;5022677;28;20205;-96
2023/08/08 05:27:40;;;;;;;5.13;2.25;;;13.80;99.90;;;;;;5021890;28;20207;-96
2023/08/08 05:30:06;;;;;;;4.25;2.25;;;13.80;99.90;;;;;;5022657;28;20238;-95
2023/08/08 05:32:32;;;;;;;4.22;2.40;;;13.90;99.90;;;;;;5020619;28;20179;-96
2023/08/08 05:35:00;;;;;;;3.83;2.20;;;13.90;99.90;;;;;;5023016;28;20610;-96
2023/08/08 05:37:27;;;;;;;2.67;2.15;;;13.90;99.90;;;;;;5022340;28;20229;-95
2023/08/08 05:39:54;;;;;;;3.10;1.80;;;13.90;99.90;;;;;;5023112;28;20175;-95
2023/08/08 05:42:20;;;;;;;4.65;2.28;;;14.00;99.90;;;;;;5024702;28;20227;-96
2023/08/08 05:44:46;;;;;;;5.20;2.30;;;14.00;99.90;;;;;;5022358;28;20187;-96
2023/08/08 05:47:12;;;;;;;5.00;2.28;;;14.10;99.90;;;;;;5023931;28;20209;-96
2023/08/08 05:49:41;;;;;;;6.10;2.35;;;14.20;99.90;;;;;;5024081;28;20176;-95
2023/08/08 05:52:07;;;;;;;4.38;2.28;;;14.20;99.90;;;;;;5025053;28;20172;-95
2023/08/08 05:54:33;;;;;;;4.30;2.40;;;14.20;99.90;;;;;;5020842;28;20175;-95
2023/08/08 05:56:58;;;;;;;6.95;2.42;;;14.30;99.90;;;;;;5019863;28;20550;-96
2023/08/08 05:59:24;;;;;;;8.70;2.00;;;14.20;99.90;;;;;;5019821;28;20191;-96
2023/08/08 06:01:50;;;;;;;3.10;1.90;;;14.30;99.90;;;;;;5019675;28;20171;-95
2023/08/08 06:04:16;;;;;;;4.95;2.13;;;14.30;99.90;;;;;;5020187;28;20179;-96
2023/08/08 06:06:42;;;;;;;4.10;2.00;;;14.40;99.90;;;;;;5020495;28;20203;-96
2023/08/08 06:09:10;;;;;;;4.15;2.50;;;14.40;99.90;;;;;;5019670;28;20218;-95
2023/08/08 06:11:36;;;;;;;5.30;2.40;;;14.40;99.90;;;;;;5001924;28;20180;-95
2023/08/08 06:14:03;;;;;;;3.05;1.98;;;14.50;99.90;;;;;;5017929;28;20175;-95
2023/08/08 06:16:29;;;;;;;4.72;2.50;;;14.60;99.90;;;;;;5018263;28;20574;-96
2023/08/08 06:18:56;;;;;;;5.68;2.28;;;14.60;99.90;;;;;;5017201;28;20246;-96
2023/08/08 06:21:22;;;;;;;6.53;2.55;;;14.60;99.90;;;;;;5016301;28;20273;-96
2023/08/08 06:23:49;;;;;;;5.03;2.28;;;14.70;99.90;;;;;;5017891;28;20203;-95
2023/08/08 06:26:16;;;;;;;8.10;2.35;;;14.90;99.90;;;;;;5018751;28;20215;-96
2023/08/08 06:28:43;;;;;;;8.02;2.63;;;15.00;99.90;;;;;;5019661;28;20179;-96
2023/08/08 06:31:08;;;;;;;5.18;2.25;;;15.10;99.90;;;;;;5020998;28;20168;-95
2023/08/08 06:33:34;;;;;;;6.68;2.22;;;15.10;99.90;;;;;;5017100;28;20222;-96
2023/08/08 06:36:00;;;;;;;5.57;2.30;;;15.10;99.90;;;;;;5015735;28;20199;-96
2023/08/08 06:38:26;;;;;;;4.72;2.70;;;15.20;99.90;;;;;;5016811;28;20284;-95
2023/08/08 06:40:52;;;;;;;5.82;2.50;;;15.20;99.90;;;;;;5015514;28;20183;-96
2023/08/08 06:43:18;;;;;;;6.50;2.53;;;15.20;99.90;;;;;;5017758;28;20186;-96
2023/08/08 06:45:44;;;;;;;4.72;2.30;;;15.20;99.90;;;;;;5016183;28;20215;-96
2023/08/08 06:48:10;;;;;;;4.88;2.60;;;15.20;99.90;;;;;;5017534;28;20654;-96
2023/08/08 06:50:38;;;;;;;6.22;2.50;;;15.40;99.90;;;;;;5018138;28;20200;-95
2023/08/08 06:53:10;;;;;;;5.80;2.80;;;15.40;99.90;;;;;;5019434;28;20526;-94
2023/08/08 06:55:37;;;;;;;8.00;2.97;;;15.50;99.90;;;;;;5019933;28;20195;-95
2023/08/08 06:58:04;;;;;;;3.42;2.42;;;15.60;99.90;;;;;;5021422;28;20171;-96
2023/08/08 07:00:30;;;;;;;3.30;2.10;;;15.60;99.90;;;;;;5020286;28;20170;-96
2023/08/08 07:02:57;;;;;;;6.18;2.30;;;15.70;99.90;;;;;;5021559;28;20171;-95
2023/08/08 07:05:23;;;;;;;8.10;2.70;;;15.70;99.90;;;;;;5019900;28;20195;-95
2023/08/08 07:07:50;;;;;;;7.20;2.78;;;15.80;99.90;;;;;;5022427;28;20183;-96
2023/08/08 07:10:19;;;;;;;7.78;2.75;;;16.00;99.90;;;;;;5023148;28;20177;-96
2023/08/08 07:12:46;;;;;;;6.68;2.60;;;16.30;99.90;;;;;;5039354;28;20547;-95
2023/08/08 07:15:15;;;;;;;6.25;2.80;;;16.50;99.90;;;;;;5022818;28;20202;-96
2023/08/08 07:17:41;;;;;;;4.97;2.60;;;16.50;99.90;;;;;;5022120;28;20175;-95
2023/08/08 07:20:08;;;;;;;5.78;2.65;;;16.40;99.90;;;;;;5021607;28;20261;-96
2023/08/08 07:22:34;;;;;;;6.20;2.63;;;16.30;99.90;;;;;;5021809;28;20251;-96
2023/08/08 07:25:04;;;;;;;6.90;2.80;;;16.40;99.90;;;;;;5022893;28;20203;-96
2023/08/08 07:27:30;;;;;;;5.20;2.58;;;16.40;99.90;;;;;;5020915;28;20253;-96
2023/08/08 07:29:56;;;;;;;11.98;2.65;;;16.30;99.90;;;;;;5022492;28;20167;-95
2023/08/08 07:32:26;;;;;;;7.68;2.65;;;16.50;99.90;;;;;;5021735;28;20233;-96
2023/08/08 07:34:53;;;;;;;7.22;2.95;;;16.70;99.90;;;;;;5021004;28;20199;-95
2023/08/08 07:37:19;;;;;;;5.97;2.55;;;16.80;99.90;;;;;;5020309;28;20313;-96
2023/08/08 07:39:45;;;;;;;6.03;2.63;;;16.80;99.90;;;;;;5021263;28;20246;-96
2023/08/08 07:42:11;;;;;;;5.20;2.22;;;16.80;99.90;;;;;;5020589;28;20357;-96
2023/08/08 07:44:38;;;;;;;3.25;1.90;;;16.80;99.90;;;;;;5022445;28;20172;-96
2023/08/08 07:47:04;;;;;;;6.80;2.78;;;16.90;99.90;;;;;;5020609;28;20639;-95
2023/08/08 07:49:30;;;;;;;4.38;2.20;;;17.00;99.90;;;;;;5023422;28;20171;-96
2023/08/08 07:51:57;;;;;;;6.05;2.53;;;17.10;99.90;;;;;;5021012;28;20602;-94
2023/08/08 07:54:23;;;;;;;4.60;2.20;;;17.20;99.90;;;;;;5024385;28;20298;-95
2023/08/08 07:56:50;;;;;;;5.53;2.15;;;17.30;99.90;;;;;;5022197;28;20223;-95
2023/08/08 07:59:16;;;;;;;5.43;2.08;;;17.40;99.90;;;;;;5021545;28;20252;-95
2023/08/08 08:01:42;;;;;;;5.82;2.33;;;17.60;99.90;;;;;;5020833;28;20259;-96
2023/08/08 08:04:08;;;;;;;3.95;1.98;;;17.70;99.90;;;;;;5019919;28;20184;-96
2023/08/08 08:06:34;;;;;;;6.10;2.10;;;17.80;99.90;;;;;;5020465;28;20215;-96
2023/08/08 08:09:03;;;;;;;3.72;2.00;;;17.80;99.90;;;;;;5020495;28;20194;-94
2023/08/08 08:11:29;;;;;;;6.63;2.30;;;17.50;99.90;;;;;;5020480;28;20191;-96
2023/08/08 08:13:55;;;;;;;4.45;2.30;;;17.20;99.90;;;;;;5018480;28;20175;-96
2023/08/08 08:16:21;;;;;;;6.70;2.08;;;17.00;99.90;;;;;;5021358;28;20230;-96
2023/08/08 08:18:47;;;;;;;5.88;2.17;;;17.00;99.90;;;;;;5022271;28;20186;-96
2023/08/08 08:21:14;;;;;;;7.97;2.08;;;17.10;99.90;;;;;;5022415;28;20183;-95
2023/08/08 08:23:40;;;;;;;3.85;1.77;;;17.20;99.90;;;;;;5023805;28;20186;-94
2023/08/08 08:26:07;;;;;;;2.92;1.45;;;17.20;99.90;;;;;;5023992;28;20234;-96
2023/08/08 08:28:33;;;;;;;4.85;1.67;;;17.10;99.90;;;;;;5022831;28;20164;-95
2023/08/08 08:31:07;;;;;;;5.78;1.80;;;17.10;99.90;;;;;;5024341;28;20230;-96
2023/08/08 08:33:33;;;;;;;4.32;1.80;;;17.20;99.90;;;;;;5023075;28;20163;-94
2023/08/08 08:35:59;;;;;;;2.70;1.75;;;17.40;99.90;;;;;;5024006;28;20235;-96
2023/08/08 08:38:25;;;;;;;7.43;1.80;;;17.70;99.90;;;;;;5023642;28;20230;-96
2023/08/08 08:40:55;;;;;;;3.17;1.52;;;18.10;99.90;;;;;;5023297;28;20195;-96
2023/08/08 08:43:23;;;;;;;7.65;2.13;;;17.90;99.90;;;;;;5024565;28;20647;-95
2023/08/08 08:45:54;;;;;;;6.90;1.88;;;17.70;99.90;;;;;;5023050;28;20211;-96
2023/08/08 08:48:21;;;;;;;4.20;1.73;;;17.50;99.90;;;;;;5026121;28;20206;-96
2023/08/08 08:50:50;;;;;;;6.07;1.67;;;17.30;99.90;;;;;;5024475;28;20195;-96
2023/08/08 08:53:17;;;;;;;3.08;1.60;;;17.20;99.90;;;;;;5026067;28;20202;-95
2023/08/08 08:55:53;;;;;;;3.10;1.45;;;17.10;99.90;;;;;;5025823;28;20206;-96
2023/08/08 08:58:28;;;;;;;4.32;1.35;;;17.10;99.90;;;;;;5032475;28;20650;-96
2023/08/08 09:00:55;;;;;;;4.25;1.50;;;17.10;99.90;;;;;;5026201;28;20665;-95
2023/08/08 09:03:22;;;;;;;8.43;1.52;;;17.10;99.90;;;;;;5025418;28;20160;-96
2023/08/08 09:05:48;;;;;;;3.10;1.67;;;17.00;99.90;;;;;;5025011;28;20207;-96
2023/08/08 09:08:26;;;;;;;8.90;1.60;;;16.90;99.90;;;;;;5027155;28;20187;-95
2023/08/08 09:10:52;;;;;;;5.50;1.48;;;16.90;99.90;;;;;;5024458;28;20183;-95
2023/08/08 09:13:18;;;;;;;8.23;1.98;;;16.90;99.90;;;;;;5024924;28;20179;-95
2023/08/08 09:15:50;;;;;;;5.15;1.40;;;16.80;99.90;;;;;;5025473;28;20207;-96
2023/08/08 09:18:17;;;;;;;4.25;1.42;;;16.90;99.90;;;;;;5026288;28;20179;-96
2023/08/08 09:20:54;;;;;;;4.05;1.15;;;17.00;99.90;;;;;;5025722;28;20234;-96
2023/08/08 09:23:30;;;;;;;3.92;1.55;;;17.20;99.90;;;;;;5026816;28;20199;-96
2023/08/08 09:25:57;;;;;;;3.17;1.30;;;17.40;99.90;;;;;;5025730;28;20207;-96
2023/08/08 09:28:26;;;;;;;8.75;1.60;;;17.50;99.90;;;;;;5024541;28;20243;-96
2023/08/08 09:30:54;;;;;;;4.13;1.35;;;17.50;99.90;;;;;;5022092;28;20230;-95
2023/08/08 09:33:22;;;;;;;2.58;1.30;;;17.50;99.90;;;;;;5022779;28;20171;-95
2023/08/08 09:35:48;;;;;;;5.95;1.38;;;17.60;99.90;;;;;;5021382;28;20213;-95
2023/08/08 09:38:14;;;;;;;3.35;1.40;;;17.60;99.90;;;;;;5023818;28;20317;-96
2023/08/08 09:40:43;;;;;;;3.78;1.10;;;17.70;99.90;;;;;;5021036;28;20650;-95
2023/08/08 09:43:11;;;;;;;8.30;1.50;;;17.70;99.90;;;;;;5022678;28;20183;-96
2023/08/08 09:45:38;;;;;;;4.22;1.10;;;17.70;99.90;;;;;;5020653;28;20199;-96
2023/08/08 09:48:07;;;;;;;4.60;1.30;;;17.70;99.90;;;;;;5019745;28;20175;-94
2023/08/08 09:50:35;;;;;;;5.35;1.30;;;17.60;99.90;;;;;;5020968;28;20647;-96
2023/08/08 09:53:04;;;;;;;2.53;1.20;;;17.60;99.90;;;;;;5020192;28;20616;-94
2023/08/08 09:55:31;;;;;;;5.60;1.40;;;17.60;99.90;;;;;;5019848;28;20207;-95
2023/08/08 09:58:00;;;;;;;3.67;1.30;;;17.50;99.90;;;;;;5020442;28;20175;-95
2023/08/08 10:00:30;;;;;;;4.88;1.20;;;17.50;99.90;;;;;;5020901;28;20185;-95
2023/08/08 10:02:56;;;;;;;4.88;1.10;;;17.40;99.90;;;;;;5020642;28;20175;-96
2023/08/08 10:05:28;;;;;;;3.22;1.20;;;17.30;99.90;;;;;;5021442;28;20206;-95
2023/08/08 10:07:54;;;;;;;3.95;1.42;;;17.20;99.90;;;;;;5020153;28;20190;-96
2023/08/08 10:10:20;;;;;;;2.08;1.30;;;17.20;99.90;;;;;;5020414;28;20168;-96
2023/08/08 10:12:47;;;;;;;2.38;1.27;;;17.10;99.90;;;;;;5021245;28;20177;-96
2023/08/08 10:15:14;;;;;;;3.75;1.58;;;17.10;99.90;;;;;;5022218;28;20281;-96
2023/08/08 10:17:42;;;;;;;5.40;1.60;;;17.00;99.90;;;;;;5020355;28;20175;-96
2023/08/08 10:20:11;;;;;;;4.90;1.63;;;16.90;99.90;;;;;;5020885;28;20175;-96
2023/08/08 10:22:47;;;;;;;4.05;1.58;;;16.90;99.90;;;;;;5021769;28;20182;-96
2023/08/08 10:25:27;;;;;;;3.63;1.67;;;17.00;99.90;;;;;;5022536;28;20194;-95
2023/08/08 10:28:07;;;;;;;7.60;1.83;;;17.00;99.90;;;;;;5020480;28;20202;-95
2023/08/08 10:30:48;;;;;;;8.13;2.08;;;17.10;99.90;;;;;;5020701;28;20186;-96
2023/08/08 10:33:19;;;;;;;2.97;1.60;;;17.30;99.90;;;;;;5021422;28;20174;-95
2023/08/08 10:35:59;;;;;;;5.93;2.08;;;17.60;99.90;;;;;;5020022;28;20732;-95
2023/08/08 10:38:27;;;;;;;5.18;1.75;;;17.60;99.90;;;;;;5020126;28;20223;-93
2023/08/08 10:40:57;;;;;;;5.15;1.90;;;17.50;99.90;;;;;;5019926;28;20193;-94
2023/08/08 10:43:30;;;;;;;6.68;1.98;;;17.40;99.90;;;;;;5020046;28;20640;-95
2023/08/08 10:46:04;;;;;;;6.88;1.55;;;17.30;99.90;;;;;;5020396;28;20207;-96
2023/08/08 10:48:30;;;;;;;4.95;1.55;;;17.10;99.90;;;;;;5019875;28;20171;-96
2023/08/08 10:51:00;;;;;;;4.40;1.80;;;16.90;99.90;;;;;;5020601;28;20183;-95
2023/08/08 10:53:28;;;;;;;4.53;1.80;;;16.80;99.90;;;;;;5019847;28;20546;-94
2023/08/08 10:56:01;;;;;;;5.43;2.00;;;16.60;99.90;;;;;;5020220;28;20198;-94
2023/08/08 10:58:49;;;;;;;3.88;2.05;;;16.50;99.90;;;;;;5020397;28;20258;-94
2023/08/08 11:01:16;;;;;;;4.75;1.98;;;16.50;99.90;;;;;;5019996;28;20182;-95
2023/08/08 11:03:43;;;;;;;2.78;1.92;;;16.40;99.90;;;;;;5021056;28;20182;-95
2023/08/08 11:06:10;;;;;;;3.88;1.80;;;16.40;99.90;;;;;;5020861;28;20225;-95
2023/08/08 11:08:38;;;;;;;3.78;1.60;;;16.40;99.90;;;;;;5020729;28;20167;-95
2023/08/08 11:11:07;;;;;;;5.50;1.88;;;16.40;99.90;;;;;;5019901;28;20639;-94
2023/08/08 11:13:33;;;;;;;3.90;1.55;;;16.30;99.90;;;;;;5020761;28;20183;-95
2023/08/08 11:16:01;;;;;;;3.33;1.15;;;16.20;99.90;;;;;;5020241;28;20733;-95
2023/08/08 11:18:30;;;;;;;3.08;1.00;;;16.10;99.90;;;;;;5019442;28;20183;-94
2023/08/08 11:20:59;;;;;;;4.47;1.30;;;16.10;99.90;;;;;;5020052;28;20182;-93
2023/08/08 11:23:25;;;;;;;2.75;1.30;;;16.20;99.90;;;;;;5020296;28;20179;-96
2023/08/08 11:25:50;;;;;;;1.10;1.00;;;16.30;99.90;;;;;;5019579;28;20679;-94
2023/08/08 11:28:16;;;;;;;2.75;1.08;;;16.40;99.90;;;;;;5020181;28;20578;-92
2023/08/08 11:30:45;;;;;;;2.58;1.30;;;16.50;99.90;;;;;;5019593;28;20186;-94
2023/08/08 11:33:18;;;;;;;2.65;0.95;;;16.90;99.90;;;;;;5019791;28;20202;-94
2023/08/08 11:35:46;;;;;;;2.17;1.00;;;17.20;99.90;;;;;;5019537;28;20226;-93
2023/08/08 11:38:14;;;;;;;6.43;1.40;;;17.60;99.90;;;;;;5001493;28;20216;-96
2023/08/08 11:40:41;;;;;;;3.42;1.45;;;17.70;99.90;;;;;;4999996;28;20176;-94
2023/08/08 11:43:07;;;;;;;4.03;1.52;;;17.70;99.90;;;;;;4992974;28;20173;-94
2023/08/08 11:45:34;;;;;;;2.83;1.30;;;17.90;99.90;;;;;;4999085;28;20196;-94
2023/08/08 11:48:01;;;;;;;2.65;1.67;;;18.00;99.90;;;;;;4992135;28;20176;-94
2023/08/08 11:50:28;;;;;;;3.67;1.90;;;18.00;99.90;;;;;;5002268;28;20190;-94
2023/08/08 11:52:55;;;;;;;5.95;1.80;;;18.10;99.90;;;;;;5003683;28;20258;-93
2023/08/08 11:55:26;;;;;;;4.63;1.90;;;18.30;99.90;;;;;;5000256;28;20192;-95
2023/08/08 11:57:56;;;;;;;6.30;1.95;;;18.70;99.90;;;;;;5003569;28;20275;-94
2023/08/08 12:00:29;;;;;;;3.17;1.92;;;19.10;99.90;;;;;;4999200;28;20184;-96
2023/08/08 12:02:56;;;;;;;3.13;1.60;;;19.40;99.90;;;;;;5003959;28;20176;-96
2023/08/08 12:05:24;;;;;;;4.45;1.55;;;19.70;99.90;;;;;;4999496;28;20204;-94
2023/08/08 12:07:50;;;;;;;3.22;1.42;;;19.90;99.90;;;;;;5004342;28;20199;-96
2023/08/08 12:10:21;;;;;;;1.80;1.25;;;20.00;99.90;;;;;;4998098;28;20195;-94
2023/08/08 12:12:58;;;;;;;2.15;1.30;;;20.10;99.90;;;;;;5003831;28;20259;-96
2023/08/08 12:15:30;;;;;;;3.90;1.30;;;20.30;99.90;;;;;;4998312;28;20702;-95
2023/08/08 12:17:58;;;;;;;3.20;1.30;;;20.50;99.90;;;;;;5003304;28;20165;-93
2023/08/08 12:20:29;;;;;;;4.80;1.40;;;20.60;99.90;;;;;;5005117;28;20691;-95
2023/08/08 12:22:55;;;;;;;5.65;2.00;;;20.60;99.90;;;;;;5005819;28;20657;-95
2023/08/08 12:25:28;;;;;;;5.03;1.63;;;20.60;99.90;;;;;;4999330;28;20207;-96
2023/08/08 12:27:54;;;;;;;3.63;1.55;;;20.60;99.90;;;;;;5003783;28;20184;-95
2023/08/08 12:30:20;;;;;;;4.03;1.33;;;20.70;99.90;;;;;;4997937;28;20670;-95
2023/08/08 12:32:46;;;;;;;4.50;1.75;;;20.70;99.90;;;;;;5004027;28;20546;-95
2023/08/08 12:35:11;;;;;;;4.20;1.25;;;20.50;99.90;;;;;;4997186;28;20215;-95
2023/08/08 12:37:37;;;;;;;4.18;1.52;;;20.10;99.90;;;;;;5002038;28;20255;-94
2023/08/08 12:40:06;;;;;;;4.68;1.50;;;19.70;99.90;;;;;;4986875;28;20647;-96
2023/08/08 12:42:32;;;;;;;13.02;2.17;;;19.30;99.90;;;;;;4987713;28;20187;-96
2023/08/08 12:45:00;;;;;;;5.25;1.60;;;18.90;99.90;;;;;;4974277;28;20203;-95
2023/08/08 12:47:29;;;;;;;4.28;1.63;;;18.60;99.90;;;;;;4982696;28;20211;-95